Time;durP1;ratioP1;P1;durP2;ratioP2;P2;SDS_P1;SDS_P2;PMS_P1;PMS_P2;Temp;Humidity;BMP_temperature;BMP_pressure;BME280_temperature;BME280_humidity;BME280_pressure;Samples;Min_cycle;Max_cycle;Signal;HPM_P1;HPM_P2
2022/02/10 00:13:51;;;;;;;32.13;6.82;;;;;;;9.68;64.02;101389.38;4894157;28;120185;-86
2022/02/10 00:19:26;;;;;;;27.75;5.35;;;;;;;9.84;64.40;101413.28;4909512;28;119316;-86
2022/02/10 00:36:00;;;;;;;24.00;6.78;;;;;;;10.20;64.16;101451.59;4926733;23;121010;-88
2022/02/10 00:43:00;;;;;;;26.73;5.93;;;;;;;9.88;64.89;101391.25;4907424;23;119483;-88
2022/02/10 00:49:58;;;;;;;30.30;5.05;;;;;;;10.15;63.89;101417.22;4840961;28;119492;-90
2022/02/10 00:52:27;;;;;;;23.52;4.07;;;;;;;9.96;63.86;101395.41;4814340;28;121981;-87
2022/02/10 00:55:02;;;;;;;28.67;4.97;;;;;;;9.98;63.69;101396.50;4825495;28;118690;-88
2022/02/10 00:57:28;;;;;;;18.80;3.50;;;;;;;9.96;63.42;101398.13;4808293;28;119140;-87
2022/02/10 01:12:14;;;;;;;;;;;;;;;10.22;63.29;101421.81;4810884;29;118629;-87
2022/02/10 01:29:43;;;;;;;21.75;4.00;;;;;;;9.91;63.31;101363.00;4896433;28;118987;-88
2022/02/10 01:32:15;;;;;;;16.85;4.05;;;;;;;9.99;63.14;101375.34;4885614;28;120006;-89
2022/02/10 01:35:08;;;;;;;21.42;3.65;;;;;;;9.72;63.04;101337.25;4898188;28;118657;-89
2022/02/10 01:37:46;;;;;;;17.50;4.22;;;;;;;10.20;62.78;101404.97;4875949;28;120618;-88
2022/02/10 02:11:28;;;;;;;26.95;4.50;;;;;;;10.09;62.87;101357.84;4967560;23;120521;-89
2022/02/10 02:14:19;;;;;;;23.27;3.90;;;;;;;9.77;63.22;101307.38;4881061;28;118542;-87
2022/02/10 02:16:55;;;;;;;26.55;4.22;;;;;;;9.62;63.04;101272.53;4879484;28;122359;-91
2022/02/10 02:22:42;;;;;;;25.40;4.20;;;;;;;9.85;62.74;101297.75;5136068;23;118762;-88
2022/02/10 02:25:17;;;;;;;21.67;4.15;;;;;;;10.13;63.00;101329.16;4899039;28;120892;-85
2022/02/10 02:31:33;;;;;;;19.30;3.97;;;;;;;9.87;62.85;101286.38;4828649;28;120614;-87
2022/02/10 02:34:24;;;;;;;25.83;4.38;;;;;;;9.99;63.08;101307.59;4850318;29;119125;-85
2022/02/10 03:17:34;;;;;;;23.67;4.13;;;;;;;9.87;63.16;101214.34;4907120;28;118526;-86
2022/02/10 03:20:29;;;;;;;17.85;3.67;;;;;;;10.28;63.58;101274.75;4902672;28;120151;-87
2022/02/10 03:59:51;;;;;;;24.50;4.28;;;;;;;10.02;63.47;101223.75;4887803;28;119342;-86
2022/02/10 04:13:53;;;;;;;22.75;4.25;;;;;;;10.20;64.63;101166.47;4910747;28;121182;-87
2022/02/10 04:16:24;;;;;;;18.75;4.07;;;;;;;10.16;64.75;101150.09;4861726;28;118647;-89
2022/02/10 04:22:05;;;;;;;18.88;4.50;;;;;;;10.45;65.24;101182.97;4857321;28;123468;-88
2022/02/10 04:28:00;;;;;;;22.15;4.13;;;;;;;10.74;65.06;101199.34;4889274;28;123077;-90
2022/02/10 05:03:53;;;;;;;;;;;;;;;;;;;;;
2022/02/10 05:16:42;;;;;;;23.73;6.40;;;;;;;11.10;64.28;101159.78;4861856;28;122069;-89
2022/02/10 05:35:09;;;;;;;27.63;8.13;;;;;;;11.03;65.67;101160.81;4873074;28;119641;-90
2022/02/10 05:46:04;;;;;;;25.98;8.60;;;;;;;10.95;65.27;101121.06;4874474;28;121945;-91
2022/02/10 05:49:46;;;;;;;29.83;8.52;;;;;;;10.97;64.38;101115.13;4869612;28;122921;-90
2022/02/10 05:57:23;;;;;;;;;;;;;;;11.32;64.24;101181.81;4863855;28;123354;-90
2022/02/10 06:00:40;;;;;;;28.73;8.65;;;;;;;11.21;64.21;101164.94;4874790;28;122205;-91
2022/02/10 06:52:16;;;;;;;27.98;5.80;;;;;;;10.74;63.13;101102.56;4875186;28;122102;-88
2022/02/10 07:04:11;;;;;;;26.87;5.67;;;;;;;10.85;62.66;101119.44;4874252;28;123288;-88
2022/02/10 07:16:52;;;;;;;22.67;5.32;;;;;;;10.64;62.62;101085.19;4860887;28;123765;-88
2022/02/10 07:57:54;;;;;;;22.63;4.20;;;;;;;10.91;62.54;101101.22;4869992;28;120539;-89
2022/02/10 09:16:13;;;;;;;;;;;;;;;11.76;62.22;101118.72;4857163;28;119686;-85
2022/02/10 10:02:12;;;;;;;23.38;3.78;;;;;;;12.88;63.64;101121.09;4874830;28;122265;-87
2022/02/10 10:04:51;;;;;;;20.42;3.85;;;;;;;12.91;61.28;101114.69;4870840;28;123157;-86
2022/02/10 10:07:48;;;;;;;19.60;4.22;;;;;;;13.04;62.39;101144.09;4877189;28;119989;-88
2022/02/10 10:24:06;;;;;;;16.90;3.92;;;;;;;13.06;60.64;101130.63;4852884;28;123456;-86
2022/02/10 10:57:13;;;;;;;20.60;4.18;;;;;;;13.04;61.10;101139.34;4857107;28;123163;-87
2022/02/10 11:39:13;;;;;;;23.67;4.23;;;;;;;12.90;57.97;101102.16;4868299;28;122361;-88
2022/02/10 12:29:26;;;;;;;20.70;4.05;;;;;;;13.12;57.49;101076.47;4876891;28;120039;-86
2022/02/10 14:12:50;;;;;;;16.10;3.30;;;;;;;12.75;58.76;101087.41;4868941;28;121312;-86
2022/02/10 14:15:34;;;;;;;13.25;3.20;;;;;;;12.74;54.53;101076.88;4856846;28;119797;-87
2022/02/10 14:28:21;;;;;;;11.38;2.58;;;;;;;11.86;53.92;101079.13;4846474;28;121876;-90
2022/02/10 14:30:55;;;;;;;15.52;2.65;;;;;;;11.79;54.37;101080.13;4855193;28;122156;-87
2022/02/10 14:33:26;;;;;;;12.93;2.75;;;;;;;11.63;55.04;101069.31;4855576;28;120141;-87
2022/02/10 14:36:04;;;;;;;21.05;4.65;;;;;;;11.65;54.88;101077.88;4885203;28;121315;-88
2022/02/10 15:36:29;;;;;;;16.45;3.42;;;;;;;11.53;58.08;101076.72;4872837;28;119894;-89
2022/02/10 16:12:09;;;;;;;24.00;6.15;;;;;;;10.95;55.95;101120.31;4862913;28;119886;-88
2022/02/10 16:17:08;;;;;;;20.67;4.78;;;;;;;10.95;56.32;101134.78;4862560;28;122798;-90
2022/02/10 16:19:41;;;;;;;21.52;5.47;;;;;;;10.45;56.38;101062.31;4889118;28;119851;-89
2022/02/10 16:27:36;;;;;;;14.45;3.97;;;;;;;10.57;56.50;101077.22;4895699;28;120253;-89
2022/02/10 16:30:11;;;;;;;22.08;4.70;;;;;;;10.50;56.45;101060.22;4860658;28;123017;-89
2022/02/10 16:32:47;;;;;;;22.23;5.55;;;;;;;10.51;57.28;101061.75;4877342;28;120160;-89
2022/02/10 16:35:12;;;;;;;15.80;4.68;;;;;;;10.64;56.48;101078.94;4874191;28;119525;-91
2022/02/10 16:37:48;;;;;;;;;;;;;;;;;;;;;
2022/02/10 16:40:22;;;;;;;21.42;4.63;;;;;;;10.79;56.08;101110.22;4876054;28;121287;-90
2022/02/10 16:42:48;;;;;;;21.92;6.35;;;;;;;10.77;56.70;101110.66;4887739;28;119879;-90
2022/02/10 16:45:15;;;;;;;21.77;7.60;;;;;;;10.85;55.87;101132.38;4874581;28;123925;-90
2022/02/10 16:47:44;;;;;;;18.60;4.85;;;;;;;10.43;56.27;101074.94;4879223;28;119632;-88
2022/02/10 16:50:10;;;;;;;23.95;4.63;;;;;;;10.64;56.31;101114.63;4838982;28;122361;-88
2022/02/10 16:52:44;;;;;;;22.55;5.03;;;;;;;10.28;56.37;101071.84;4873672;28;119577;-89
2022/02/10 16:55:21;;;;;;;18.17;4.68;;;;;;;10.70;56.35;101132.06;4893123;28;119763;-90
2022/02/10 17:01:59;;;;;;;30.00;10.52;;;;;;;10.52;56.31;101132.63;4882182;23;120100;-88
2022/02/10 17:27:37;;;;;;;25.35;4.82;;;;;;;10.24;58.13;101139.72;4901508;28;122682;-86
2022/02/10 17:33:01;;;;;;;20.42;3.80;;;;;;;9.81;58.00;101082.59;4897410;28;119258;-86
2022/02/10 17:46:11;;;;;;;23.40;4.65;;;;;;;9.80;57.25;101095.53;4887061;28;120669;-86
2022/02/10 17:54:11;;;;;;;19.48;4.50;;;;;;;9.71;58.33;101092.69;4885083;28;118555;-88
2022/02/10 17:56:41;;;;;;;23.63;5.03;;;;;;;9.87;57.75;101116.47;4882018;28;121950;-87
2022/02/10 17:59:08;;;;;;;23.20;5.22;;;;;;;10.07;57.80;101146.47;4907984;28;120102;-87
2022/02/10 18:01:35;;;;;;;21.83;5.65;;;;;;;10.05;57.99;101133.19;4916483;28;118540;-88
2022/02/10 18:04:00;;;;;;;20.48;5.75;;;;;;;10.13;57.81;101156.44;4879864;28;123834;-87
2022/02/10 18:06:31;;;;;;;22.63;6.70;;;;;;;9.96;57.41;101124.09;4892891;28;120524;-88
2022/02/10 18:16:00;;;;;;;27.85;7.85;;;;;;;10.15;57.32;101164.22;4874614;28;121472;-86
2022/02/10 18:18:28;;;;;;;21.70;5.93;;;;;;;10.10;58.48;101162.03;4854284;28;121914;-86
2022/02/10 18:21:06;;;;;;;25.52;5.47;;;;;;;9.68;58.21;101093.53;4842289;28;123541;-86
2022/02/10 18:23:47;;;;;;;33.88;8.00;;;;;;;9.79;57.47;101118.66;4861092;28;119579;-87
2022/02/10 18:26:19;;;;;;;28.23;7.05;;;;;;;9.82;57.66;101134.22;4847774;28;122279;-86
2022/02/10 18:29:02;;;;;;;27.58;7.18;;;;;;;9.69;57.32;101114.22;4843133;28;121462;-86
2022/02/10 18:34:50;;;;;;;21.10;5.78;;;;;;;9.84;59.01;101155.72;4874668;28;120407;-86
2022/02/10 19:09:41;;;;;;;20.50;4.88;;;;;;;9.64;58.22;101169.53;4889454;28;120577;-89
2022/02/10 19:12:17;;;;;;;21.42;4.43;;;;;;;9.30;57.99;101109.03;4911574;28;119528;-86
2022/02/10 19:14:54;;;;;;;23.63;5.05;;;;;;;9.52;58.02;101156.56;4928484;28;120102;-86
2022/02/10 19:17:25;;;;;;;24.25;4.80;;;;;;;9.57;58.03;101160.75;4903768;28;121600;-87
2022/02/10 19:19:54;;;;;;;22.75;4.80;;;;;;;9.81;58.24;101203.94;4895206;28;122248;-86
2022/02/10 19:22:21;;;;;;;22.55;5.00;;;;;;;9.62;57.92;101166.47;4910245;28;118584;-88
2022/02/10 19:24:48;;;;;;;25.88;4.53;;;;;;;9.36;57.82;101126.47;4897649;28;119183;-86
2022/02/10 19:27:22;;;;;;;22.52;4.32;;;;;;;9.66;57.91;101175.34;4912586;28;120760;-85
2022/02/10 19:29:58;;;;;;;22.45;5.35;;;;;;;9.52;57.68;101151.88;4914655;28;119276;-86
2022/02/10 19:32:31;;;;;;;21.05;4.20;;;;;;;9.56;59.67;101160.00;4919544;28;119571;-86
2022/02/10 19:35:03;;;;;;;23.63;4.60;;;;;;;9.72;59.11;101167.41;4898376;28;122321;-89
2022/02/10 19:37:31;;;;;;;22.70;5.18;;;;;;;9.64;59.09;101164.06;4910918;28;120707;-86
2022/02/10 19:40:03;;;;;;;25.98;4.18;;;;;;;9.47;58.84;101116.03;4907853;28;120087;-87
2022/02/10 19:42:36;;;;;;;19.73;4.80;;;;;;;9.59;58.43;101126.25;4896612;28;120251;-86
2022/02/10 19:45:05;;;;;;;19.77;4.73;;;;;;;10.10;59.21;101209.41;4924223;28;119678;-87
2022/02/10 19:51:37;;;;;;;18.67;3.53;;;;;;;9.77;58.26;101173.13;4915559;28;120154;-86
2022/02/10 19:54:07;;;;;;;19.13;3.65;;;;;;;9.55;58.47;101161.19;4911007;28;122181;-87
2022/02/10 19:56:36;;;;;;;17.17;4.53;;;;;;;9.87;58.73;101201.44;4878943;28;122808;-86
2022/02/10 19:59:08;;;;;;;26.27;5.68;;;;;;;9.47;58.82;101129.72;4914044;28;119951;-87
2022/02/10 20:01:38;;;;;;;17.88;5.72;;;;;;;9.33;58.70;101124.59;4904783;28;121751;-86
2022/02/10 20:04:09;;;;;;;23.20;5.90;;;;;;;9.37;58.32;101139.75;4927820;28;119561;-87
2022/02/10 20:06:38;;;;;;;22.73;5.53;;;;;;;9.71;58.82;101206.97;4912633;28;119665;-86
2022/02/10 20:09:07;;;;;;;18.55;4.82;;;;;;;9.47;59.12;101192.72;4912252;28;123090;-86
2022/02/10 20:11:43;;;;;;;19.73;5.00;;;;;;;9.51;59.13;101207.84;4974011;23;118842;-87
2022/02/10 20:14:21;;;;;;;22.65;5.70;;;;;;;9.16;59.52;101165.69;4911145;28;122736;-87
2022/02/10 20:16:59;;;;;;;22.08;5.63;;;;;;;9.09;59.23;101156.88;4870804;28;122123;-86
2022/02/10 20:22:17;;;;;;;39.15;11.70;;;;;;;8.86;59.35;101146.88;4854143;28;121173;-86
2022/02/10 20:24:43;;;;;;;35.92;11.18;;;;;;;8.72;59.47;101138.97;4841472;28;122672;-86
2022/02/10 20:27:16;;;;;;;35.88;10.98;;;;;;;8.67;59.87;101139.50;4827794;28;121625;-86
2022/02/10 20:29:43;;;;;;;36.88;13.45;;;;;;;8.65;59.91;101141.88;4832574;28;122851;-86
2022/02/10 20:32:15;;;;;;;35.25;8.75;;;;;;;9.07;60.46;101209.31;4841099;28;120479;-87
2022/02/10 20:34:45;;;;;;;41.38;10.50;;;;;;;9.03;60.56;101214.09;4855606;28;120350;-86
2022/02/10 20:37:22;;;;;;;33.17;9.38;;;;;;;8.69;60.78;101156.25;4836613;28;122521;-86
2022/02/10 20:40:01;;;;;;;38.95;11.70;;;;;;;8.51;60.58;101135.53;4825580;28;119381;-86
2022/02/10 20:42:36;;;;;;;37.15;11.23;;;;;;;8.49;61.09;101137.16;4812289;28;121406;-86
2022/02/10 20:45:14;;;;;;;29.80;7.38;;;;;;;8.68;60.11;101171.13;4831826;28;121205;-86
2022/02/10 20:47:47;;;;;;;28.42;5.97;;;;;;;8.76;60.62;101189.69;4826875;28;119436;-87
2022/02/10 20:50:17;;;;;;;33.25;5.72;;;;;;;8.47;60.38;101148.50;4851776;28;121481;-86
2022/02/10 20:52:44;;;;;;;31.38;6.15;;;;;;;8.51;60.98;101149.22;4842433;28;118675;-86
2022/02/10 20:55:12;;;;;;;30.83;6.05;;;;;;;8.77;60.99;101179.53;4851404;28;123869;-86
2022/02/10 20:57:58;;;;;;;;;;;;;;;;;;;;;
2022/02/10 21:00:34;;;;;;;23.05;5.30;;;;;;;8.77;61.02;101179.53;4851900;28;119558;-86
2022/02/10 21:03:15;;;;;;;;;;;;;;;;;;;;;
2022/02/10 21:05:55;;;;;;;25.35;5.53;;;;;;;8.67;60.45;101131.28;4825024;28;121070;-86
2022/02/10 21:08:52;;;;;;;24.90;6.47;;;;;;;8.57;60.35;101117.44;4842209;28;120487;-86
2022/02/10 21:11:29;;;;;;;27.08;5.88;;;;;;;8.68;61.38;101130.88;4854193;28;120080;-86
2022/02/10 21:13:57;;;;;;;25.63;5.70;;;;;;;8.90;60.72;101161.22;4837417;28;120521;-86
2022/02/10 21:16:25;;;;;;;22.67;5.47;;;;;;;8.97;60.29;101180.22;4822081;28;119409;-86
2022/02/10 21:18:53;;;;;;;22.92;4.97;;;;;;;8.54;60.24;101123.78;4836521;28;120097;-86
2022/02/10 21:21:23;;;;;;;25.65;5.15;;;;;;;8.78;60.47;101154.47;4852933;28;119554;-86
2022/02/10 21:23:59;;;;;;;25.60;4.85;;;;;;;8.54;60.15;101123.78;4821417;28;120729;-86
2022/02/10 21:26:33;;;;;;;21.60;4.63;;;;;;;8.56;59.89;101124.13;4821488;28;121399;-86
2022/02/10 21:29:09;;;;;;;28.20;5.00;;;;;;;8.51;59.65;101107.44;4824967;28;120272;-86
2022/02/10 21:31:43;;;;;;;23.73;5.88;;;;;;;8.59;60.16;101119.75;4823485;28;122479;-86
2022/02/10 21:34:19;;;;;;;31.85;5.55;;;;;;;8.58;60.17;101118.22;4838007;28;118521;-86
2022/02/10 21:37:08;;;;;;;26.15;5.63;;;;;;;8.76;59.68;101147.91;4831524;28;119166;-86
2022/02/10 21:39:56;;;;;;;23.67;5.10;;;;;;;8.77;59.62;101142.00;4824076;28;123284;-86
2022/02/10 21:57:24;;;;;;;23.73;4.18;;;;;;;8.51;59.09;101102.72;4891911;28;123248;-87
2022/02/10 22:10:35;;;;;;;24.73;4.25;;;;;;;8.69;59.25;101134.38;4883490;28;121582;-86
2022/02/10 22:19:15;;;;;;;23.45;4.82;;;;;;;8.70;59.48;101146.84;4866066;28;122165;-86
2022/02/10 22:21:56;;;;;;;24.73;4.05;;;;;;;8.65;58.98;101141.88;4853623;28;120670;-86
2022/02/10 22:24:26;;;;;;;18.63;4.03;;;;;;;8.81;59.32;101175.50;4854045;28;121638;-86
2022/02/10 22:26:54;;;;;;;23.52;4.40;;;;;;;8.52;59.48;101128.13;4892231;28;118654;-86
2022/02/10 22:29:35;;;;;;;25.05;4.60;;;;;;;8.80;59.83;101173.19;4900296;28;119613;-86
2022/02/10 22:35:02;;;;;;;22.25;4.35;;;;;;;8.19;59.50;101091.72;4890590;28;120940;-87
2022/02/10 22:37:33;;;;;;;28.02;4.70;;;;;;;8.36;60.01;101120.66;4887017;28;119608;-87
2022/02/10 22:40:08;;;;;;;20.10;4.40;;;;;;;8.23;59.92;101097.88;4902030;28;121243;-87
2022/02/10 22:42:42;;;;;;;26.25;4.57;;;;;;;8.15;59.85;101086.31;4890546;28;119336;-86
2022/02/10 22:45:31;;;;;;;22.75;4.05;;;;;;;8.55;60.40;101144.44;4876730;28;120799;-86
2022/02/10 22:48:00;;;;;;;23.10;4.57;;;;;;;8.54;59.96;101145.66;4874614;28;119539;-86
2022/02/10 22:50:29;;;;;;;26.92;5.25;;;;;;;8.25;59.70;101100.94;4892810;28;119446;-87
2022/02/10 22:52:59;;;;;;;20.90;4.70;;;;;;;8.61;59.71;101152.91;4876372;28;119364;-86
2022/02/10 22:55:30;;;;;;;34.47;5.05;;;;;;;8.27;59.75;101101.28;4893343;28;119953;-86
2022/02/10 22:57:57;;;;;;;28.00;4.28;;;;;;;8.50;60.07;101144.16;4877180;28;119185;-86
2022/02/10 23:00:40;;;;;;;24.05;4.55;;;;;;;8.27;60.28;101095.81;4891189;28;120079;-86
2022/02/10 23:03:19;;;;;;;30.33;4.88;;;;;;;8.53;60.14;101133.16;4891874;28;118500;-86
2022/02/10 23:05:48;;;;;;;23.88;4.05;;;;;;;8.59;60.10;101134.19;4876552;28;119998;-86
2022/02/10 23:08:16;;;;;;;22.17;4.28;;;;;;;8.60;59.62;101127.53;4893031;28;120918;-86
2022/02/10 23:10:47;;;;;;;28.48;5.15;;;;;;;8.46;59.79;101097.78;4903148;23;119711;-85
2022/02/10 23:13:28;;;;;;;21.40;4.40;;;;;;;8.97;59.82;101173.97;4864401;23;121879;-87
2022/02/10 23:15:59;;;;;;;24.63;4.47;;;;;;;8.89;60.08;101149.53;4889095;28;120010;-85
2022/02/10 23:18:28;;;;;;;23.05;4.45;;;;;;;9.01;60.02;101167.25;4857662;28;122355;-86
2022/02/10 23:20:56;;;;;;;25.90;4.32;;;;;;;8.58;59.69;101101.81;4887550;28;122687;-85
2022/02/10 23:23:34;;;;;;;27.52;4.55;;;;;;;8.53;59.60;101094.13;4841626;28;119617;-85
2022/02/10 23:26:06;;;;;;;24.50;4.65;;;;;;;8.47;59.36;101082.13;4875250;28;121027;-85
2022/02/10 23:28:36;;;;;;;21.10;4.22;;;;;;;8.51;59.83;101091.78;4875064;28;123286;-85
2022/02/10 23:31:11;;;;;;;26.55;4.90;;;;;;;8.87;59.78;101145.69;4877806;28;120248;-85
2022/02/10 23:33:41;;;;;;;22.95;4.53;;;;;;;8.88;60.28;101144.47;4872514;28;120315;-86
2022/02/10 23:36:27;;;;;;;26.20;4.95;;;;;;;8.80;60.08;101135.69;4874606;28;119797;-85
2022/02/10 23:39:04;;;;;;;25.88;4.57;;;;;;;8.97;60.34;101147.38;4841775;28;121882;-86
2022/02/10 23:44:20;;;;;;;22.10;4.30;;;;;;;8.90;59.99;101112.00;4891203;28;119403;-86
2022/02/10 23:46:53;;;;;;;22.27;4.68;;;;;;;8.97;59.96;101111.03;4860365;28;120417;-86
2022/02/10 23:49:21;;;;;;;21.50;4.35;;;;;;;9.21;60.15;101156.19;4858478;28;122961;-86
2022/02/10 23:51:58;;;;;;;28.85;5.20;;;;;;;8.73;60.26;101085.81;4862461;28;120445;-87
2022/02/10 23:54:26;;;;;;;21.80;3.85;;;;;;;9.17;59.94;101158.22;4873020;28;121061;-86
2022/02/10 23:57:00;;;;;;;23.25;4.35;;;;;;;8.68;59.63;101083.59;4873305;28;119067;-86
